sensor_id;sensor_type;location;lat;lon;timestamp;pressure;altitude;pressure_sealevel;temperature;humidity
6506;BME280;3286;49.858;8.768;2024-01-07T00:00:34;98737.84;;;6.96;61.24
6506;BME280;3286;49.858;8.768;2024-01-07T00:03:01;98742.00;;;6.18;63.03
6506;BME280;3286;49.858;8.768;2024-01-07T00:05:28;98741.75;;;6.21;63.17
6506;BME280;3286;49.858;8.768;2024-01-07T00:07:54;98741.06;;;6.19;63.77
6506;BME280;3286;49.858;8.768;2024-01-07T00:10:21;98733.50;;;6.36;63.14
6506;BME280;3286;49.858;8.768;2024-01-07T00:12:48;98733.25;;;6.69;61.69
6506;BME280;3286;49.858;8.768;2024-01-07T00:15:18;98749.34;;;5.93;63.99
6506;BME280;3286;49.858;8.768;2024-01-07T00:17:45;98738.94;;;6.93;61.75
6506;BME280;3286;49.858;8.768;2024-01-07T00:20:12;98746.13;;;6.91;60.96
6506;BME280;3286;49.858;8.768;2024-01-07T00:22:39;98747.66;;;6.94;61.48
6506;BME280;3286;49.858;8.768;2024-01-07T00:25:07;98747.19;;;6.59;62.04
6506;BME280;3286;49.858;8.768;2024-01-07T00:27:33;98749.25;;;6.46;62.74
6506;BME280;3286;49.858;8.768;2024-01-07T00:30:00;98760.09;;;6.21;62.24
6506;BME280;3286;49.858;8.768;2024-01-07T00:32:28;98757.91;;;6.27;62.90
6506;BME280;3286;49.858;8.768;2024-01-07T00:34:55;98759.09;;;5.18;64.79
6506;BME280;3286;49.858;8.768;2024-01-07T00:37:22;98759.69;;;5.21;66.68
6506;BME280;3286;49.858;8.768;2024-01-07T00:39:50;98752.91;;;5.19;66.07
6506;BME280;3286;49.858;8.768;2024-01-07T00:42:17;98755.59;;;6.33;62.87
6506;BME280;3286;49.858;8.768;2024-01-07T00:44:43;98758.03;;;6.25;62.78
6506;BME280;3286;49.858;8.768;2024-01-07T00:47:10;98754.00;;;6.91;60.43
6506;BME280;3286;49.858;8.768;2024-01-07T00:49:39;98758.56;;;6.89;60.01
6506;BME280;3286;49.858;8.768;2024-01-07T00:52:07;98751.94;;;6.85;60.34
6506;BME280;3286;49.858;8.768;2024-01-07T00:54:34;98751.72;;;6.37;60.67
6506;BME280;3286;49.858;8.768;2024-01-07T00:57:11;98758.94;;;5.52;63.63
6506;BME280;3286;49.858;8.768;2024-01-07T00:59:37;98764.38;;;5.91;62.79
6506;BME280;3286;49.858;8.768;2024-01-07T01:02:04;98757.84;;;6.67;60.99
6506;BME280;3286;49.858;8.768;2024-01-07T01:04:33;98752.72;;;6.56;60.94
6506;BME280;3286;49.858;8.768;2024-01-07T01:07:01;98762.31;;;7.16;59.40
6506;BME280;3286;49.858;8.768;2024-01-07T01:09:28;98761.63;;;7.14;59.10
6506;BME280;3286;49.858;8.768;2024-01-07T01:11:55;98765.88;;;6.86;58.89
6506;BME280;3286;49.858;8.768;2024-01-07T01:14:21;98781.22;;;6.20;62.11
6506;BME280;3286;49.858;8.768;2024-01-07T01:16:48;98778.19;;;6.85;59.24
6506;BME280;3286;49.858;8.768;2024-01-07T01:19:16;98771.84;;;6.78;59.70
6506;BME280;3286;49.858;8.768;2024-01-07T01:21:43;98773.22;;;6.82;60.00
6506;BME280;3286;49.858;8.768;2024-01-07T01:24:11;98775.03;;;6.00;61.83
6506;BME280;3286;49.858;8.768;2024-01-07T01:26:41;98780.16;;;6.42;61.13
6506;BME280;3286;49.858;8.768;2024-01-07T01:29:07;98782.94;;;6.41;60.37
6506;BME280;3286;49.858;8.768;2024-01-07T01:31:34;98799.84;;;5.95;62.25
6506;BME280;3286;49.858;8.768;2024-01-07T01:34:01;98793.97;;;6.34;61.34
6506;BME280;3286;49.858;8.768;2024-01-07T01:36:28;98793.81;;;6.36;61.19
6506;BME280;3286;49.858;8.768;2024-01-07T01:38:54;98792.09;;;5.63;62.72
6506;BME280;3286;49.858;8.768;2024-01-07T01:41:22;98799.69;;;5.66;62.79
6506;BME280;3286;49.858;8.768;2024-01-07T01:43:49;98803.63;;;5.18;64.09
6506;BME280;3286;49.858;8.768;2024-01-07T01:46:15;98803.69;;;5.91;61.95
6506;BME280;3286;49.858;8.768;2024-01-07T01:48:42;98793.03;;;6.45;60.46
6506;BME280;3286;49.858;8.768;2024-01-07T01:51:09;98797.38;;;6.25;61.30
6506;BME280;3286;49.858;8.768;2024-01-07T01:53:37;98802.50;;;5.53;63.09
6506;BME280;3286;49.858;8.768;2024-01-07T01:56:05;98793.41;;;6.31;60.93
6506;BME280;3286;49.858;8.768;2024-01-07T01:58:33;98793.66;;;6.78;59.57
6506;BME280;3286;49.858;8.768;2024-01-07T02:01:00;98803.25;;;6.07;61.17
6506;BME280;3286;49.858;8.768;2024-01-07T02:03:27;98808.91;;;4.74;65.00
6506;BME280;3286;49.858;8.768;2024-01-07T02:05:53;98794.91;;;5.29;63.91
6506;BME280;3286;49.858;8.768;2024-01-07T02:08:20;98808.94;;;5.91;62.03
6506;BME280;3286;49.858;8.768;2024-01-07T02:10:47;98797.78;;;6.71;59.50
6506;BME280;3286;49.858;8.768;2024-01-07T02:13:14;98792.28;;;5.71;62.43
6506;BME280;3286;49.858;8.768;2024-01-07T02:15:42;98800.31;;;6.32;60.73
6506;BME280;3286;49.858;8.768;2024-01-07T02:18:09;98788.41;;;5.97;61.21
6506;BME280;3286;49.858;8.768;2024-01-07T02:20:36;98803.09;;;5.57;62.09
6506;BME280;3286;49.858;8.768;2024-01-07T02:23:02;98802.03;;;6.12;60.78
6506;BME280;3286;49.858;8.768;2024-01-07T02:25:34;98803.22;;;5.01;63.26
6506;BME280;3286;49.858;8.768;2024-01-07T02:28:01;98802.84;;;5.60;62.78
6506;BME280;3286;49.858;8.768;2024-01-07T02:30:33;98807.31;;;6.21;61.05
6506;BME280;3286;49.858;8.768;2024-01-07T02:33:04;98803.19;;;5.13;63.34
6506;BME280;3286;49.858;8.768;2024-01-07T02:35:31;98805.28;;;5.83;62.17
6506;BME280;3286;49.858;8.768;2024-01-07T02:37:58;98800.59;;;5.55;61.90
6506;BME280;3286;49.858;8.768;2024-01-07T02:40:24;98809.13;;;6.00;61.99
6506;BME280;3286;49.858;8.768;2024-01-07T02:42:52;98806.63;;;6.19;60.82
6506;BME280;3286;49.858;8.768;2024-01-07T02:45:19;98802.75;;;5.29;63.50
6506;BME280;3286;49.858;8.768;2024-01-07T02:47:45;98809.91;;;5.90;62.20
6506;BME280;3286;49.858;8.768;2024-01-07T02:50:13;98802.81;;;6.33;60.60
6506;BME280;3286;49.858;8.768;2024-01-07T02:52:41;98811.19;;;6.27;60.79
6506;BME280;3286;49.858;8.768;2024-01-07T02:55:08;98805.94;;;5.96;61.80
6506;BME280;3286;49.858;8.768;2024-01-07T02:57:35;98807.38;;;5.79;61.92
6506;BME280;3286;49.858;8.768;2024-01-07T03:00:04;98808.72;;;6.76;59.33
6506;BME280;3286;49.858;8.768;2024-01-07T03:02:31;98806.94;;;6.96;58.44
6506;BME280;3286;49.858;8.768;2024-01-07T03:04:58;98812.03;;;6.28;61.00
6506;BME280;3286;49.858;8.768;2024-01-07T03:07:24;98817.16;;;5.77;61.82
6506;BME280;3286;49.858;8.768;2024-01-07T03:09:51;98819.22;;;4.75;65.47
6506;BME280;3286;49.858;8.768;2024-01-07T03:12:18;98826.41;;;4.62;66.32
6506;BME280;3286;49.858;8.768;2024-01-07T03:14:44;98823.38;;;5.22;64.23
6506;BME280;3286;49.858;8.768;2024-01-07T03:17:13;98823.81;;;4.95;66.44
6506;BME280;3286;49.858;8.768;2024-01-07T03:19:42;98828.25;;;5.48;63.24
6506;BME280;3286;49.858;8.768;2024-01-07T03:22:09;98817.59;;;5.61;63.39
6506;BME280;3286;49.858;8.768;2024-01-07T03:24:35;98824.41;;;6.16;61.26
6506;BME280;3286;49.858;8.768;2024-01-07T03:27:02;98820.06;;;6.05;62.01
6506;BME280;3286;49.858;8.768;2024-01-07T03:29:29;98823.84;;;6.12;61.24
6506;BME280;3286;49.858;8.768;2024-01-07T03:31:58;98819.09;;;6.06;62.10
6506;BME280;3286;49.858;8.768;2024-01-07T03:34:26;98822.16;;;6.42;61.10
6506;BME280;3286;49.858;8.768;2024-01-07T03:36:53;98822.56;;;6.37;60.37
6506;BME280;3286;49.858;8.768;2024-01-07T03:39:19;98820.31;;;6.84;59.33
6506;BME280;3286;49.858;8.768;2024-01-07T03:41:46;98827.19;;;5.18;63.49
6506;BME280;3286;49.858;8.768;2024-01-07T03:44:12;98827.75;;;5.00;64.94
6506;BME280;3286;49.858;8.768;2024-01-07T03:46:39;98832.59;;;5.38;64.10
6506;BME280;3286;49.858;8.768;2024-01-07T03:49:06;98832.91;;;5.65;63.12
6506;BME280;3286;49.858;8.768;2024-01-07T03:51:34;98823.28;;;5.87;62.51
6506;BME280;3286;49.858;8.768;2024-01-07T03:54:01;98828.34;;;5.25;63.86
6506;BME280;3286;49.858;8.768;2024-01-07T03:56:27;98826.09;;;5.74;63.02
6506;BME280;3286;49.858;8.768;2024-01-07T03:58:54;98831.47;;;6.15;62.31
6506;BME280;3286;49.858;8.768;2024-01-07T04:01:20;98831.56;;;6.45;60.28
6506;BME280;3286;49.858;8.768;2024-01-07T04:03:47;98825.75;;;5.68;62.65
6506;BME280;3286;49.858;8.768;2024-01-07T04:06:14;98832.88;;;5.77;62.72
6506;BME280;3286;49.858;8.768;2024-01-07T04:08:42;98827.38;;;5.80;62.17
6506;BME280;3286;49.858;8.768;2024-01-07T04:11:08;98845.97;;;5.77;62.22
6506;BME280;3286;49.858;8.768;2024-01-07T04:13:38;98853.25;;;5.94;62.33
6506;BME280;3286;49.858;8.768;2024-01-07T04:16:04;98857.41;;;5.22;64.81
6506;BME280;3286;49.858;8.768;2024-01-07T04:18:34;98846.09;;;6.18;61.80
6506;BME280;3286;49.858;8.768;2024-01-07T04:21:01;98861.19;;;6.26;61.55
6506;BME280;3286;49.858;8.768;2024-01-07T04:23:28;98856.31;;;5.78;62.68
6506;BME280;3286;49.858;8.768;2024-01-07T04:25:56;98857.63;;;6.05;62.05
6506;BME280;3286;49.858;8.768;2024-01-07T04:28:22;98875.81;;;4.99;64.67
6506;BME280;3286;49.858;8.768;2024-01-07T04:30:49;98871.81;;;4.72;65.48
6506;BME280;3286;49.858;8.768;2024-01-07T04:33:15;98872.19;;;5.56;64.22
6506;BME280;3286;49.858;8.768;2024-01-07T04:35:42;98865.59;;;5.83;62.68
6506;BME280;3286;49.858;8.768;2024-01-07T04:38:09;98869.31;;;4.82;65.39
6506;BME280;3286;49.858;8.768;2024-01-07T04:40:54;98881.78;;;6.09;62.77
6506;BME280;3286;49.858;8.768;2024-01-07T04:43:22;98875.94;;;6.58;60.30
6506;BME280;3286;49.858;8.768;2024-01-07T04:45:48;98889.84;;;6.48;60.79
6506;BME280;3286;49.858;8.768;2024-01-07T04:48:15;98884.78;;;6.26;61.90
6506;BME280;3286;49.858;8.768;2024-01-07T04:50:42;98890.53;;;5.44;64.21
6506;BME280;3286;49.858;8.768;2024-01-07T04:53:08;98882.22;;;5.72;62.85
6506;BME280;3286;49.858;8.768;2024-01-07T04:55:36;98893.09;;;5.34;63.92
6506;BME280;3286;49.858;8.768;2024-01-07T04:58:02;98891.13;;;5.48;63.89
6506;BME280;3286;49.858;8.768;2024-01-07T05:00:31;98893.97;;;5.77;63.26
6506;BME280;3286;49.858;8.768;2024-01-07T05:02:58;98899.03;;;4.92;65.38
6506;BME280;3286;49.858;8.768;2024-01-07T05:05:24;98894.72;;;5.14;65.59
6506;BME280;3286;49.858;8.768;2024-01-07T05:07:51;98893.91;;;5.89;63.01
6506;BME280;3286;49.858;8.768;2024-01-07T05:10:18;98899.16;;;6.31;61.61
6506;BME280;3286;49.858;8.768;2024-01-07T05:12:44;98903.84;;;5.20;64.87
6506;BME280;3286;49.858;8.768;2024-01-07T05:15:11;98908.00;;;4.56;66.52
6506;BME280;3286;49.858;8.768;2024-01-07T05:17:39;98909.38;;;4.94;66.34
6506;BME280;3286;49.858;8.768;2024-01-07T05:20:07;98910.59;;;5.34;64.55
6506;BME280;3286;49.858;8.768;2024-01-07T05:22:34;98913.66;;;5.06;65.69
6506;BME280;3286;49.858;8.768;2024-01-07T05:25:00;98916.38;;;5.05;65.63
6506;BME280;3286;49.858;8.768;2024-01-07T05:27:27;98921.84;;;5.13;65.81
6506;BME280;3286;49.858;8.768;2024-01-07T05:29:54;98919.66;;;5.30;64.90
6506;BME280;3286;49.858;8.768;2024-01-07T05:32:21;98929.72;;;4.33;68.06
6506;BME280;3286;49.858;8.768;2024-01-07T05:34:50;98928.91;;;4.90;65.97
6506;BME280;3286;49.858;8.768;2024-01-07T05:37:17;98923.03;;;5.09;65.56
6506;BME280;3286;49.858;8.768;2024-01-07T05:39:43;98930.56;;;4.68;66.72
6506;BME280;3286;49.858;8.768;2024-01-07T05:42:10;98932.97;;;4.60;66.53
6506;BME280;3286;49.858;8.768;2024-01-07T05:44:36;98943.91;;;4.65;67.42
6506;BME280;3286;49.858;8.768;2024-01-07T05:47:03;98939.09;;;3.77;69.47
6506;BME280;3286;49.858;8.768;2024-01-07T05:49:30;98942.94;;;3.60;70.98
6506;BME280;3286;49.858;8.768;2024-01-07T05:51:58;98944.41;;;4.00;69.85
6506;BME280;3286;49.858;8.768;2024-01-07T05:54:25;98945.22;;;4.01;68.70
6506;BME280;3286;49.858;8.768;2024-01-07T05:56:51;98948.75;;;4.47;67.64
6506;BME280;3286;49.858;8.768;2024-01-07T05:59:18;98946.38;;;5.01;66.04
6506;BME280;3286;49.858;8.768;2024-01-07T06:01:45;98952.34;;;4.57;66.88
6506;BME280;3286;49.858;8.768;2024-01-07T06:04:11;98950.28;;;4.27;67.93
6506;BME280;3286;49.858;8.768;2024-01-07T06:06:37;98945.25;;;5.38;64.76
6506;BME280;3286;49.858;8.768;2024-01-07T06:09:05;98951.00;;;4.86;66.54
6506;BME280;3286;49.858;8.768;2024-01-07T06:11:32;98955.06;;;4.78;65.93
6506;BME280;3286;49.858;8.768;2024-01-07T06:13:58;98960.28;;;5.13;64.67
6506;BME280;3286;49.858;8.768;2024-01-07T06:16:25;98961.06;;;4.11;67.79
6506;BME280;3286;49.858;8.768;2024-01-07T06:18:52;98968.75;;;4.48;67.44
6506;BME280;3286;49.858;8.768;2024-01-07T06:21:18;98970.16;;;4.52;66.56
6506;BME280;3286;49.858;8.768;2024-01-07T06:23:45;98967.44;;;4.76;66.38
6506;BME280;3286;49.858;8.768;2024-01-07T06:26:22;98969.41;;;4.27;67.61
6506;BME280;3286;49.858;8.768;2024-01-07T06:28:48;98985.13;;;4.39;67.54
6506;BME280;3286;49.858;8.768;2024-01-07T06:31:15;98983.00;;;3.72;68.90
6506;BME280;3286;49.858;8.768;2024-01-07T06:33:42;98978.47;;;4.34;66.87
6506;BME280;3286;49.858;8.768;2024-01-07T06:36:08;98989.25;;;4.18;67.37
6506;BME280;3286;49.858;8.768;2024-01-07T06:38:35;98986.53;;;3.60;68.69
6506;BME280;3286;49.858;8.768;2024-01-07T06:41:02;99000.16;;;4.12;67.17
6506;BME280;3286;49.858;8.768;2024-01-07T06:43:31;99000.75;;;3.80;66.54
6506;BME280;3286;49.858;8.768;2024-01-07T06:45:58;98999.78;;;3.32;68.15
6506;BME280;3286;49.858;8.768;2024-01-07T06:48:25;99004.56;;;3.39;67.67
6506;BME280;3286;49.858;8.768;2024-01-07T06:50:52;99015.50;;;3.81;66.62
6506;BME280;3286;49.858;8.768;2024-01-07T06:53:18;99017.41;;;3.90;65.06
6506;BME280;3286;49.858;8.768;2024-01-07T06:55:45;99028.88;;;4.37;63.64
6506;BME280;3286;49.858;8.768;2024-01-07T06:58:11;99026.22;;;3.89;65.15
6506;BME280;3286;49.858;8.768;2024-01-07T07:00:39;99023.91;;;3.60;65.31
6506;BME280;3286;49.858;8.768;2024-01-07T07:03:06;99031.13;;;3.94;64.38
6506;BME280;3286;49.858;8.768;2024-01-07T07:05:33;99045.53;;;3.87;64.37
6506;BME280;3286;49.858;8.768;2024-01-07T07:08:01;99046.00;;;3.81;64.91
6506;BME280;3286;49.858;8.768;2024-01-07T07:10:37;99049.91;;;3.38;65.75
6506;BME280;3286;49.858;8.768;2024-01-07T07:13:04;99048.34;;;3.35;66.40
6506;BME280;3286;49.858;8.768;2024-01-07T07:15:30;99046.38;;;3.63;65.05
6506;BME280;3286;49.858;8.768;2024-01-07T07:17:58;99045.94;;;3.94;64.14
6506;BME280;3286;49.858;8.768;2024-01-07T07:20:25;99059.41;;;3.76;65.09
6506;BME280;3286;49.858;8.768;2024-01-07T07:22:52;99055.38;;;4.32;63.41
6506;BME280;3286;49.858;8.768;2024-01-07T07:25:18;99061.16;;;3.51;64.12
6506;BME280;3286;49.858;8.768;2024-01-07T07:27:45;99064.44;;;3.03;65.16
6506;BME280;3286;49.858;8.768;2024-01-07T07:30:23;99074.50;;;2.96;65.80
6506;BME280;3286;49.858;8.768;2024-01-07T07:32:49;99080.00;;;3.30;65.56
6506;BME280;3286;49.858;8.768;2024-01-07T07:35:17;99078.88;;;3.09;66.48
6506;BME280;3286;49.858;8.768;2024-01-07T07:37:44;99086.34;;;3.26;64.17
6506;BME280;3286;49.858;8.768;2024-01-07T07:40:12;99083.28;;;3.45;64.18
6506;BME280;3286;49.858;8.768;2024-01-07T07:42:39;99088.97;;;3.26;64.22
6506;BME280;3286;49.858;8.768;2024-01-07T07:45:06;99098.88;;;3.47;63.90
6506;BME280;3286;49.858;8.768;2024-01-07T07:47:33;99100.56;;;2.70;65.36
6506;BME280;3286;49.858;8.768;2024-01-07T07:50:00;99111.13;;;2.41;66.98
6506;BME280;3286;49.858;8.768;2024-01-07T07:52:28;99090.38;;;3.06;65.57
6506;BME280;3286;49.858;8.768;2024-01-07T07:54:56;99116.03;;;2.86;65.26
6506;BME280;3286;49.858;8.768;2024-01-07T07:57:24;99113.63;;;3.22;64.25
6506;BME280;3286;49.858;8.768;2024-01-07T07:59:51;99107.34;;;3.88;62.30
6506;BME280;3286;49.858;8.768;2024-01-07T08:02:18;99121.78;;;3.30;63.67
6506;BME280;3286;49.858;8.768;2024-01-07T08:04:44;99120.44;;;3.75;63.23
6506;BME280;3286;49.858;8.768;2024-01-07T08:07:11;99136.59;;;2.78;65.02
6506;BME280;3286;49.858;8.768;2024-01-07T08:09:39;99131.25;;;3.44;63.99
6506;BME280;3286;49.858;8.768;2024-01-07T08:12:06;99127.50;;;3.48;61.95
6506;BME280;3286;49.858;8.768;2024-01-07T08:14:33;99136.19;;;3.86;61.97
6506;BME280;3286;49.858;8.768;2024-01-07T08:17:00;99137.41;;;3.56;63.07
6506;BME280;3286;49.858;8.768;2024-01-07T08:19:29;99136.34;;;3.72;61.67
6506;BME280;3286;49.858;8.768;2024-01-07T08:21:56;99150.63;;;2.50;65.04
6506;BME280;3286;49.858;8.768;2024-01-07T08:24:23;99159.22;;;2.37;65.47
6506;BME280;3286;49.858;8.768;2024-01-07T08:26:51;99150.41;;;3.06;64.13
6506;BME280;3286;49.858;8.768;2024-01-07T08:29:18;99150.38;;;3.32;62.96
6506;BME280;3286;49.858;8.768;2024-01-07T08:31:44;99151.31;;;3.18;63.40
6506;BME280;3286;49.858;8.768;2024-01-07T08:34:11;99146.22;;;3.80;61.44
6506;BME280;3286;49.858;8.768;2024-01-07T08:36:38;99166.78;;;3.60;60.86
6506;BME280;3286;49.858;8.768;2024-01-07T08:39:05;99168.13;;;3.27;61.95
6506;BME280;3286;49.858;8.768;2024-01-07T08:41:32;99173.50;;;2.85;62.65
6506;BME280;3286;49.858;8.768;2024-01-07T08:43:59;99168.44;;;3.35;61.79
6506;BME280;3286;49.858;8.768;2024-01-07T08:46:26;99171.56;;;3.40;61.87
6506;BME280;3286;49.858;8.768;2024-01-07T08:48:53;99186.44;;;3.40;60.89
6506;BME280;3286;49.858;8.768;2024-01-07T08:51:19;99190.31;;;2.81;62.00
6506;BME280;3286;49.858;8.768;2024-01-07T08:53:46;99198.03;;;2.14;63.92
6506;BME280;3286;49.858;8.768;2024-01-07T08:56:12;99195.06;;;2.61;62.90
6506;BME280;3286;49.858;8.768;2024-01-07T08:58:40;99193.94;;;3.18;61.18
6506;BME280;3286;49.858;8.768;2024-01-07T09:01:08;99196.81;;;2.88;61.66
6506;BME280;3286;49.858;8.768;2024-01-07T09:03:35;99199.31;;;2.22;62.62
6506;BME280;3286;49.858;8.768;2024-01-07T09:06:03;99200.63;;;2.00;63.34
6506;BME280;3286;49.858;8.768;2024-01-07T09:08:30;99202.56;;;2.53;61.67
6506;BME280;3286;49.858;8.768;2024-01-07T09:10:57;99201.03;;;3.16;60.09
6506;BME280;3286;49.858;8.768;2024-01-07T09:13:25;99208.56;;;2.81;60.60
6506;BME280;3286;49.858;8.768;2024-01-07T09:15:52;99212.31;;;2.77;60.84
6506;BME280;3286;49.858;8.768;2024-01-07T09:18:20;99227.19;;;2.34;61.05
6506;BME280;3286;49.858;8.768;2024-01-07T09:20:47;99229.91;;;2.33;61.48
6506;BME280;3286;49.858;8.768;2024-01-07T09:23:13;99225.69;;;1.73;62.37
6506;BME280;3286;49.858;8.768;2024-01-07T09:25:40;99227.28;;;2.05;63.13
6506;BME280;3286;49.858;8.768;2024-01-07T09:28:07;99227.66;;;2.41;61.39
6506;BME280;3286;49.858;8.768;2024-01-07T09:30:34;99233.81;;;2.67;60.61
6506;BME280;3286;49.858;8.768;2024-01-07T09:33:01;99242.47;;;2.26;61.25
6506;BME280;3286;49.858;8.768;2024-01-07T09:35:29;99244.63;;;2.61;60.27
6506;BME280;3286;49.858;8.768;2024-01-07T09:37:55;99249.06;;;1.75;61.42
6506;BME280;3286;49.858;8.768;2024-01-07T09:40:22;99248.19;;;1.74;62.13
6506;BME280;3286;49.858;8.768;2024-01-07T09:42:50;99248.16;;;2.18;61.07
6506;BME280;3286;49.858;8.768;2024-01-07T09:45:18;99257.09;;;2.14;60.57
6506;BME280;3286;49.858;8.768;2024-01-07T09:47:45;99261.44;;;2.42;60.52
6506;BME280;3286;49.858;8.768;2024-01-07T09:50:16;99269.78;;;2.62;59.33
6506;BME280;3286;49.858;8.768;2024-01-07T09:52:44;99265.94;;;2.95;58.47
6506;BME280;3286;49.858;8.768;2024-01-07T09:55:17;99272.44;;;2.75;57.67
6506;BME280;3286;49.858;8.768;2024-01-07T09:57:47;99273.88;;;1.95;60.64
6506;BME280;3286;49.858;8.768;2024-01-07T10:00:15;99258.16;;;2.11;60.16
6506;BME280;3286;49.858;8.768;2024-01-07T10:02:43;99271.16;;;2.26;59.63
6506;BME280;3286;49.858;8.768;2024-01-07T10:05:09;99270.16;;;2.83;57.85
6506;BME280;3286;49.858;8.768;2024-01-07T10:07:36;99268.72;;;2.65;57.72
6506;BME280;3286;49.858;8.768;2024-01-07T10:10:13;99270.25;;;1.98;60.22
6506;BME280;3286;49.858;8.768;2024-01-07T10:12:39;99277.72;;;2.46;59.04
6506;BME280;3286;49.858;8.768;2024-01-07T10:15:23;99268.44;;;2.97;57.82
6506;BME280;3286;49.858;8.768;2024-01-07T10:17:54;99273.59;;;2.14;59.59
6506;BME280;3286;49.858;8.768;2024-01-07T10:20:21;99276.69;;;1.92;59.47
6506;BME280;3286;49.858;8.768;2024-01-07T10:22:50;99276.22;;;2.84;57.59
6506;BME280;3286;49.858;8.768;2024-01-07T10:25:18;99280.06;;;2.78;58.12
6506;BME280;3286;49.858;8.768;2024-01-07T10:27:45;99285.88;;;1.83;59.98
6506;BME280;3286;49.858;8.768;2024-01-07T10:30:12;99288.94;;;2.19;60.07
6506;BME280;3286;49.858;8.768;2024-01-07T10:32:41;99283.69;;;2.48;58.95
6506;BME280;3286;49.858;8.768;2024-01-07T10:35:11;99280.25;;;2.48;58.56
6506;BME280;3286;49.858;8.768;2024-01-07T10:37:39;99274.53;;;1.99;59.04
6506;BME280;3286;49.858;8.768;2024-01-07T10:40:13;99275.00;;;1.91;60.20
6506;BME280;3286;49.858;8.768;2024-01-07T10:42:43;99278.34;;;1.93;59.77
6506;BME280;3286;49.858;8.768;2024-01-07T10:45:10;99280.13;;;1.64;59.80
6506;BME280;3286;49.858;8.768;2024-01-07T10:47:38;99294.22;;;1.45;60.90
6506;BME280;3286;49.858;8.768;2024-01-07T10:50:08;99291.03;;;1.40;60.48
6506;BME280;3286;49.858;8.768;2024-01-07T10:52:40;99281.59;;;2.11;60.05
6506;BME280;3286;49.858;8.768;2024-01-07T10:55:09;99296.75;;;1.76;59.33
6506;BME280;3286;49.858;8.768;2024-01-07T10:57:44;99299.56;;;1.87;62.22
6506;BME280;3286;49.858;8.768;2024-01-07T11:00:13;99293.16;;;2.07;58.96
6506;BME280;3286;49.858;8.768;2024-01-07T11:02:51;99304.56;;;1.76;59.17
6506;BME280;3286;49.858;8.768;2024-01-07T11:05:25;99306.47;;;1.88;58.87
6506;BME280;3286;49.858;8.768;2024-01-07T11:07:57;99306.19;;;2.07;58.90
6506;BME280;3286;49.858;8.768;2024-01-07T11:10:37;99308.03;;;1.76;59.57
6506;BME280;3286;49.858;8.768;2024-01-07T11:13:06;99301.81;;;1.93;58.49
6506;BME280;3286;49.858;8.768;2024-01-07T11:15:52;99291.28;;;2.24;59.41
6506;BME280;3286;49.858;8.768;2024-01-07T11:18:19;99298.38;;;2.07;58.10
6506;BME280;3286;49.858;8.768;2024-01-07T11:20:46;99303.84;;;2.31;57.91
6506;BME280;3286;49.858;8.768;2024-01-07T11:23:26;99307.97;;;1.62;59.84
6506;BME280;3286;49.858;8.768;2024-01-07T11:25:53;99304.03;;;2.28;58.01
6506;BME280;3286;49.858;8.768;2024-01-07T11:28:48;99309.69;;;2.35;58.26
6506;BME280;3286;49.858;8.768;2024-01-07T11:31:16;99311.75;;;1.86;58.75
6506;BME280;3286;49.858;8.768;2024-01-07T11:33:51;99311.84;;;1.85;59.69
6506;BME280;3286;49.858;8.768;2024-01-07T11:36:20;99318.59;;;1.58;59.88
6506;BME280;3286;49.858;8.768;2024-01-07T11:38:48;99310.38;;;1.05;60.85
6506;BME280;3286;49.858;8.768;2024-01-07T11:41:16;99302.63;;;1.65;59.46
6506;BME280;3286;49.858;8.768;2024-01-07T11:43:55;99316.66;;;1.62;59.69
6506;BME280;3286;49.858;8.768;2024-01-07T11:46:24;99318.03;;;1.53;59.64
6506;BME280;3286;49.858;8.768;2024-01-07T11:48:54;99307.09;;;1.32;60.10
6506;BME280;3286;49.858;8.768;2024-01-07T11:51:24;99315.75;;;2.07;58.82
6506;BME280;3286;49.858;8.768;2024-01-07T11:53:51;99322.53;;;1.35;59.56
6506;BME280;3286;49.858;8.768;2024-01-07T11:56:25;99325.66;;;1.26;59.74
6506;BME280;3286;49.858;8.768;2024-01-07T11:58:51;99310.53;;;1.33;59.53
6506;BME280;3286;49.858;8.768;2024-01-07T12:01:21;99329.44;;;1.20;59.48
6506;BME280;3286;49.858;8.768;2024-01-07T12:03:48;99322.31;;;1.24;60.16
6506;BME280;3286;49.858;8.768;2024-01-07T12:06:16;99329.72;;;1.46;59.38
6506;BME280;3286;49.858;8.768;2024-01-07T12:08:43;99328.13;;;1.88;58.60
6506;BME280;3286;49.858;8.768;2024-01-07T12:11:12;99343.47;;;1.34;59.69
6506;BME280;3286;49.858;8.768;2024-01-07T12:13:39;99336.97;;;0.94;59.58
6506;BME280;3286;49.858;8.768;2024-01-07T12:16:07;99345.34;;;1.15;59.67
6506;BME280;3286;49.858;8.768;2024-01-07T12:18:37;99344.59;;;0.97;60.05
6506;BME280;3286;49.858;8.768;2024-01-07T12:21:04;99338.38;;;2.06;57.19
6506;BME280;3286;49.858;8.768;2024-01-07T12:23:34;99324.50;;;3.04;54.40
6506;BME280;3286;49.858;8.768;2024-01-07T12:26:08;99338.47;;;2.19;56.18
6506;BME280;3286;49.858;8.768;2024-01-07T12:28:41;99344.63;;;1.58;57.27
6506;BME280;3286;49.858;8.768;2024-01-07T12:31:12;99347.66;;;1.20;58.75
6506;BME280;3286;49.858;8.768;2024-01-07T12:33:40;99338.06;;;1.37;58.73
6506;BME280;3286;49.858;8.768;2024-01-07T12:36:08;99340.97;;;1.16;58.58
6506;BME280;3286;49.858;8.768;2024-01-07T12:38:36;99340.22;;;1.90;57.22
6506;BME280;3286;49.858;8.768;2024-01-07T12:41:03;99342.09;;;2.31;55.81
6506;BME280;3286;49.858;8.768;2024-01-07T12:43:31;99348.06;;;2.04;56.25
6506;BME280;3286;49.858;8.768;2024-01-07T12:45:58;99348.09;;;1.73;57.23
6506;BME280;3286;49.858;8.768;2024-01-07T12:48:29;99341.91;;;1.91;56.67
6506;BME280;3286;49.858;8.768;2024-01-07T12:51:01;99355.47;;;1.81;56.18
6506;BME280;3286;49.858;8.768;2024-01-07T12:53:28;99347.44;;;1.39;57.40
6506;BME280;3286;49.858;8.768;2024-01-07T12:55:55;99346.91;;;1.65;56.12
6506;BME280;3286;49.858;8.768;2024-01-07T12:58:21;99353.25;;;1.44;57.49
6506;BME280;3286;49.858;8.768;2024-01-07T13:00:48;99364.47;;;1.14;57.35
6506;BME280;3286;49.858;8.768;2024-01-07T13:03:15;99361.53;;;1.21;57.89
6506;BME280;3286;49.858;8.768;2024-01-07T13:05:44;99372.72;;;0.91;58.84
6506;BME280;3286;49.858;8.768;2024-01-07T13:08:14;99367.16;;;0.81;58.88
6506;BME280;3286;49.858;8.768;2024-01-07T13:10:43;99371.47;;;0.66;58.70
6506;BME280;3286;49.858;8.768;2024-01-07T13:13:10;99371.09;;;1.20;57.63
6506;BME280;3286;49.858;8.768;2024-01-07T13:15:41;99369.09;;;1.56;57.25
6506;BME280;3286;49.858;8.768;2024-01-07T13:18:07;99365.81;;;1.52;57.03
6506;BME280;3286;49.858;8.768;2024-01-07T13:20:35;99379.53;;;0.93;57.74
6506;BME280;3286;49.858;8.768;2024-01-07T13:23:03;99375.16;;;1.40;57.04
6506;BME280;3286;49.858;8.768;2024-01-07T13:25:32;99382.09;;;1.25;57.28
6506;BME280;3286;49.858;8.768;2024-01-07T13:27:58;99375.53;;;1.65;57.32
6506;BME280;3286;49.858;8.768;2024-01-07T13:30:48;99385.19;;;1.93;56.61
6506;BME280;3286;49.858;8.768;2024-01-07T13:33:15;99392.97;;;1.48;56.73
6506;BME280;3286;49.858;8.768;2024-01-07T13:35:43;99390.84;;;1.85;56.15